sensor_id;sensor_type;location;lat;lon;timestamp;P1;durP1;ratioP1;P2;durP2;ratioP2
15192;SDS011;7697;51.630;7.484;2023-06-04T00:01:50;2.20;;;1.40;;
15192;SDS011;7697;51.630;7.484;2023-06-04T00:06:53;2.28;;;1.17;;
15192;SDS011;7697;51.630;7.484;2023-06-04T00:11:57;1.98;;;1.20;;
15192;SDS011;7697;51.630;7.484;2023-06-04T00:16:59;2.00;;;1.67;;
15192;SDS011;7697;51.630;7.484;2023-06-04T00:22:01;1.58;;;1.13;;
15192;SDS011;7697;51.630;7.484;2023-06-04T00:27:04;1.33;;;1.17;;
15192;SDS011;7697;51.630;7.484;2023-06-04T00:32:07;1.25;;;1.15;;
15192;SDS011;7697;51.630;7.484;2023-06-04T00:37:09;1.30;;;1.20;;
15192;SDS011;7697;51.630;7.484;2023-06-04T00:42:12;8.13;;;2.65;;
15192;SDS011;7697;51.630;7.484;2023-06-04T00:47:15;1.35;;;1.17;;
15192;SDS011;7697;51.630;7.484;2023-06-04T00:52:17;1.73;;;1.20;;
15192;SDS011;7697;51.630;7.484;2023-06-04T00:57:21;1.40;;;1.30;;
15192;SDS011;7697;51.630;7.484;2023-06-04T01:02:23;1.55;;;1.33;;
15192;SDS011;7697;51.630;7.484;2023-06-04T01:07:27;1.65;;;1.40;;
15192;SDS011;7697;51.630;7.484;2023-06-04T01:12:31;1.30;;;1.20;;
15192;SDS011;7697;51.630;7.484;2023-06-04T01:17:34;1.70;;;1.33;;
15192;SDS011;7697;51.630;7.484;2023-06-04T01:22:43;1.48;;;1.38;;
15192;SDS011;7697;51.630;7.484;2023-06-04T01:27:51;1.30;;;1.20;;
15192;SDS011;7697;51.630;7.484;2023-06-04T01:32:55;1.42;;;1.30;;
15192;SDS011;7697;51.630;7.484;2023-06-04T01:37:57;2.03;;;1.35;;
15192;SDS011;7697;51.630;7.484;2023-06-04T01:43:01;1.48;;;1.30;;
15192;SDS011;7697;51.630;7.484;2023-06-04T01:48:04;1.42;;;1.33;;
15192;SDS011;7697;51.630;7.484;2023-06-04T01:53:07;1.70;;;1.20;;
15192;SDS011;7697;51.630;7.484;2023-06-04T01:58:10;1.55;;;1.23;;
15192;SDS011;7697;51.630;7.484;2023-06-04T02:03:12;2.05;;;1.20;;
15192;SDS011;7697;51.630;7.484;2023-06-04T02:08:15;1.52;;;1.40;;
15192;SDS011;7697;51.630;7.484;2023-06-04T02:13:20;1.30;;;1.20;;
15192;SDS011;7697;51.630;7.484;2023-06-04T02:18:22;1.30;;;1.20;;
15192;SDS011;7697;51.630;7.484;2023-06-04T02:23:24;2.10;;;1.33;;
15192;SDS011;7697;51.630;7.484;2023-06-04T02:28:28;1.70;;;1.30;;
15192;SDS011;7697;51.630;7.484;2023-06-04T02:33:30;1.70;;;1.40;;
15192;SDS011;7697;51.630;7.484;2023-06-04T02:38:32;1.35;;;1.13;;
15192;SDS011;7697;51.630;7.484;2023-06-04T02:43:36;1.40;;;1.30;;
15192;SDS011;7697;51.630;7.484;2023-06-04T02:48:38;3.13;;;1.52;;
15192;SDS011;7697;51.630;7.484;2023-06-04T02:53:40;2.00;;;1.20;;
15192;SDS011;7697;51.630;7.484;2023-06-04T02:58:50;1.38;;;1.08;;
15192;SDS011;7697;51.630;7.484;2023-06-04T03:03:53;1.58;;;1.40;;
15192;SDS011;7697;51.630;7.484;2023-06-04T03:08:55;2.22;;;1.70;;
15192;SDS011;7697;51.630;7.484;2023-06-04T03:13:58;2.00;;;1.50;;
15192;SDS011;7697;51.630;7.484;2023-06-04T03:19:00;1.70;;;1.60;;
15192;SDS011;7697;51.630;7.484;2023-06-04T03:24:02;1.75;;;1.60;;
15192;SDS011;7697;51.630;7.484;2023-06-04T03:29:05;1.50;;;1.30;;
15192;SDS011;7697;51.630;7.484;2023-06-04T03:34:08;2.00;;;1.50;;
15192;SDS011;7697;51.630;7.484;2023-06-04T03:39:10;2.00;;;1.13;;
15192;SDS011;7697;51.630;7.484;2023-06-04T03:44:14;3.30;;;1.52;;
15192;SDS011;7697;51.630;7.484;2023-06-04T03:49:16;1.75;;;1.35;;
15192;SDS011;7697;51.630;7.484;2023-06-04T03:54:18;2.13;;;1.67;;
15192;SDS011;7697;51.630;7.484;2023-06-04T03:59:22;1.75;;;1.50;;
15192;SDS011;7697;51.630;7.484;2023-06-04T04:04:23;1.85;;;1.50;;
15192;SDS011;7697;51.630;7.484;2023-06-04T04:09:25;1.65;;;1.55;;
15192;SDS011;7697;51.630;7.484;2023-06-04T04:14:29;1.40;;;1.30;;
15192;SDS011;7697;51.630;7.484;2023-06-04T04:19:30;1.92;;;1.67;;
15192;SDS011;7697;51.630;7.484;2023-06-04T04:24:33;1.95;;;1.45;;
15192;SDS011;7697;51.630;7.484;2023-06-04T04:29:37;1.77;;;1.20;;
15192;SDS011;7697;51.630;7.484;2023-06-04T04:34:49;1.98;;;1.40;;
15192;SDS011;7697;51.630;7.484;2023-06-04T04:39:52;1.80;;;1.30;;
15192;SDS011;7697;51.630;7.484;2023-06-04T04:44:56;1.58;;;1.48;;
15192;SDS011;7697;51.630;7.484;2023-06-04T04:49:57;3.00;;;1.40;;
15192;SDS011;7697;51.630;7.484;2023-06-04T04:54:59;2.22;;;1.55;;
15192;SDS011;7697;51.630;7.484;2023-06-04T05:00:03;1.60;;;1.30;;
15192;SDS011;7697;51.630;7.484;2023-06-04T05:05:06;2.88;;;1.83;;
15192;SDS011;7697;51.630;7.484;2023-06-04T05:10:08;3.60;;;1.65;;
15192;SDS011;7697;51.630;7.484;2023-06-04T05:15:14;1.90;;;1.65;;
15192;SDS011;7697;51.630;7.484;2023-06-04T05:20:18;1.52;;;1.42;;
15192;SDS011;7697;51.630;7.484;2023-06-04T05:25:21;2.97;;;1.50;;
15192;SDS011;7697;51.630;7.484;2023-06-04T05:30:25;2.42;;;1.88;;
15192;SDS011;7697;51.630;7.484;2023-06-04T05:35:27;1.70;;;1.55;;
15192;SDS011;7697;51.630;7.484;2023-06-04T05:40:29;1.90;;;1.60;;
15192;SDS011;7697;51.630;7.484;2023-06-04T05:45:35;5.03;;;1.85;;
15192;SDS011;7697;51.630;7.484;2023-06-04T05:50:37;1.77;;;1.67;;
15192;SDS011;7697;51.630;7.484;2023-06-04T05:55:44;1.98;;;1.75;;
15192;SDS011;7697;51.630;7.484;2023-06-04T06:00:51;3.88;;;1.80;;
15192;SDS011;7697;51.630;7.484;2023-06-04T06:05:53;2.78;;;1.90;;
15192;SDS011;7697;51.630;7.484;2023-06-04T06:10:57;1.98;;;1.73;;
15192;SDS011;7697;51.630;7.484;2023-06-04T06:16:00;1.80;;;1.60;;
15192;SDS011;7697;51.630;7.484;2023-06-04T06:21:02;4.10;;;1.90;;
15192;SDS011;7697;51.630;7.484;2023-06-04T06:26:04;2.72;;;1.80;;
15192;SDS011;7697;51.630;7.484;2023-06-04T06:31:09;2.70;;;1.70;;
15192;SDS011;7697;51.630;7.484;2023-06-04T06:36:11;4.13;;;2.05;;
15192;SDS011;7697;51.630;7.484;2023-06-04T06:41:13;2.58;;;1.70;;
15192;SDS011;7697;51.630;7.484;2023-06-04T06:46:16;1.73;;;1.40;;
15192;SDS011;7697;51.630;7.484;2023-06-04T06:51:18;2.22;;;1.70;;
15192;SDS011;7697;51.630;7.484;2023-06-04T06:56:20;1.90;;;1.60;;
15192;SDS011;7697;51.630;7.484;2023-06-04T07:01:23;2.90;;;1.80;;
15192;SDS011;7697;51.630;7.484;2023-06-04T07:06:25;1.98;;;1.50;;
15192;SDS011;7697;51.630;7.484;2023-06-04T07:11:27;2.05;;;1.65;;
15192;SDS011;7697;51.630;7.484;2023-06-04T07:16:31;2.28;;;1.80;;
15192;SDS011;7697;51.630;7.484;2023-06-04T07:21:32;2.53;;;1.70;;
15192;SDS011;7697;51.630;7.484;2023-06-04T07:26:34;1.70;;;1.60;;
15192;SDS011;7697;51.630;7.484;2023-06-04T07:31:38;2.05;;;1.80;;
15192;SDS011;7697;51.630;7.484;2023-06-04T07:36:39;2.22;;;1.67;;
15192;SDS011;7697;51.630;7.484;2023-06-04T07:41:41;1.60;;;1.50;;
15192;SDS011;7697;51.630;7.484;2023-06-04T07:46:45;2.28;;;1.70;;
15192;SDS011;7697;51.630;7.484;2023-06-04T07:51:47;4.22;;;1.58;;
15192;SDS011;7697;51.630;7.484;2023-06-04T07:56:49;1.63;;;1.52;;
15192;SDS011;7697;51.630;7.484;2023-06-04T08:01:57;3.08;;;1.63;;
15192;SDS011;7697;51.630;7.484;2023-06-04T08:06:59;3.33;;;1.60;;
15192;SDS011;7697;51.630;7.484;2023-06-04T08:12:01;1.65;;;1.55;;
15192;SDS011;7697;51.630;7.484;2023-06-04T08:17:05;2.88;;;2.10;;
15192;SDS011;7697;51.630;7.484;2023-06-04T08:22:07;2.05;;;1.70;;
15192;SDS011;7697;51.630;7.484;2023-06-04T08:27:11;2.42;;;1.95;;
15192;SDS011;7697;51.630;7.484;2023-06-04T08:32:14;1.92;;;1.80;;
15192;SDS011;7697;51.630;7.484;2023-06-04T08:37:16;3.42;;;2.35;;
15192;SDS011;7697;51.630;7.484;2023-06-04T08:42:20;2.10;;;1.90;;
15192;SDS011;7697;51.630;7.484;2023-06-04T08:47:28;3.17;;;2.20;;
15192;SDS011;7697;51.630;7.484;2023-06-04T08:52:30;2.50;;;2.30;;
15192;SDS011;7697;51.630;7.484;2023-06-04T08:57:32;2.90;;;2.58;;
15192;SDS011;7697;51.630;7.484;2023-06-04T09:02:37;4.18;;;2.60;;
15192;SDS011;7697;51.630;7.484;2023-06-04T09:07:39;2.97;;;2.65;;
15192;SDS011;7697;51.630;7.484;2023-06-04T09:12:43;3.30;;;2.90;;
15192;SDS011;7697;51.630;7.484;2023-06-04T09:17:49;4.07;;;2.67;;
15192;SDS011;7697;51.630;7.484;2023-06-04T09:22:51;2.97;;;2.60;;
15192;SDS011;7697;51.630;7.484;2023-06-04T09:27:53;4.55;;;2.80;;
15192;SDS011;7697;51.630;7.484;2023-06-04T09:33:06;2.80;;;2.58;;
15192;SDS011;7697;51.630;7.484;2023-06-04T09:38:08;3.10;;;2.80;;
15192;SDS011;7697;51.630;7.484;2023-06-04T09:43:10;5.00;;;2.75;;
15192;SDS011;7697;51.630;7.484;2023-06-04T09:48:23;3.45;;;2.47;;
15192;SDS011;7697;51.630;7.484;2023-06-04T09:53:25;2.88;;;2.47;;
15192;SDS011;7697;51.630;7.484;2023-06-04T09:58:28;3.13;;;2.40;;
15192;SDS011;7697;51.630;7.484;2023-06-04T10:03:33;4.40;;;2.60;;
15192;SDS011;7697;51.630;7.484;2023-06-04T10:08:35;3.33;;;2.65;;
15192;SDS011;7697;51.630;7.484;2023-06-04T10:13:45;3.30;;;2.40;;
15192;SDS011;7697;51.630;7.484;2023-06-04T10:18:53;2.92;;;2.38;;
15192;SDS011;7697;51.630;7.484;2023-06-04T10:23:56;3.60;;;2.67;;
15192;SDS011;7697;51.630;7.484;2023-06-04T10:28:58;3.03;;;2.73;;
15192;SDS011;7697;51.630;7.484;2023-06-04T10:34:03;3.47;;;2.60;;
15192;SDS011;7697;51.630;7.484;2023-06-04T10:39:05;3.30;;;2.75;;
15192;SDS011;7697;51.630;7.484;2023-06-04T10:44:07;3.35;;;2.20;;
15192;SDS011;7697;51.630;7.484;2023-06-04T10:49:11;2.60;;;2.13;;
15192;SDS011;7697;51.630;7.484;2023-06-04T10:54:21;2.60;;;2.30;;
15192;SDS011;7697;51.630;7.484;2023-06-04T10:59:24;2.25;;;1.98;;
15192;SDS011;7697;51.630;7.484;2023-06-04T11:04:27;2.97;;;2.05;;
15192;SDS011;7697;51.630;7.484;2023-06-04T11:09:29;3.38;;;2.50;;
15192;SDS011;7697;51.630;7.484;2023-06-04T11:14:31;3.63;;;2.35;;
15192;SDS011;7697;51.630;7.484;2023-06-04T11:19:36;2.28;;;2.05;;
15192;SDS011;7697;51.630;7.484;2023-06-04T11:24:38;2.00;;;1.80;;
15192;SDS011;7697;51.630;7.484;2023-06-04T11:29:40;3.08;;;1.80;;
15192;SDS011;7697;51.630;7.484;2023-06-04T11:34:43;3.53;;;1.80;;
15192;SDS011;7697;51.630;7.484;2023-06-04T11:39:45;3.10;;;2.10;;
15192;SDS011;7697;51.630;7.484;2023-06-04T11:44:47;4.07;;;2.22;;
15192;SDS011;7697;51.630;7.484;2023-06-04T11:49:54;2.70;;;1.98;;
15192;SDS011;7697;51.630;7.484;2023-06-04T11:54:57;2.60;;;1.85;;
15192;SDS011;7697;51.630;7.484;2023-06-04T11:59:59;2.67;;;1.80;;
15192;SDS011;7697;51.630;7.484;2023-06-04T12:05:11;2.38;;;1.80;;
15192;SDS011;7697;51.630;7.484;2023-06-04T12:10:14;1.60;;;1.40;;
15192;SDS011;7697;51.630;7.484;2023-06-04T12:15:18;3.35;;;1.67;;
15192;SDS011;7697;51.630;7.484;2023-06-04T12:20:33;2.60;;;1.80;;
15192;SDS011;7697;51.630;7.484;2023-06-04T12:25:36;2.47;;;1.90;;
15192;SDS011;7697;51.630;7.484;2023-06-04T12:30:39;3.22;;;1.80;;
15192;SDS011;7697;51.630;7.484;2023-06-04T12:35:43;1.90;;;1.70;;
15192;SDS011;7697;51.630;7.484;2023-06-04T12:40:45;1.92;;;1.73;;
15192;SDS011;7697;51.630;7.484;2023-06-04T12:45:47;1.92;;;1.70;;
15192;SDS011;7697;51.630;7.484;2023-06-04T12:50:50;3.00;;;2.00;;
15192;SDS011;7697;51.630;7.484;2023-06-04T12:55:52;1.92;;;1.65;;
15192;SDS011;7697;51.630;7.484;2023-06-04T13:00:54;2.58;;;2.17;;
15192;SDS011;7697;51.630;7.484;2023-06-04T13:05:57;2.05;;;1.83;;
15192;SDS011;7697;51.630;7.484;2023-06-04T13:10:59;3.13;;;2.08;;
15192;SDS011;7697;51.630;7.484;2023-06-04T13:16:01;2.30;;;2.10;;
15192;SDS011;7697;51.630;7.484;2023-06-04T13:21:04;4.70;;;2.00;;
15192;SDS011;7697;51.630;7.484;2023-06-04T13:26:07;3.10;;;2.20;;
15192;SDS011;7697;51.630;7.484;2023-06-04T13:31:09;3.95;;;2.30;;
15192;SDS011;7697;51.630;7.484;2023-06-04T13:36:12;2.60;;;2.10;;
15192;SDS011;7697;51.630;7.484;2023-06-04T13:41:14;2.35;;;2.15;;
15192;SDS011;7697;51.630;7.484;2023-06-04T13:46:16;2.63;;;2.20;;
15192;SDS011;7697;51.630;7.484;2023-06-04T13:51:19;2.50;;;2.20;;
15192;SDS011;7697;51.630;7.484;2023-06-04T13:56:21;3.00;;;2.30;;
15192;SDS011;7697;51.630;7.484;2023-06-04T14:01:23;4.03;;;2.47;;
15192;SDS011;7697;51.630;7.484;2023-06-04T14:06:26;2.88;;;2.22;;
15192;SDS011;7697;51.630;7.484;2023-06-04T14:11:28;2.72;;;2.15;;
15192;SDS011;7697;51.630;7.484;2023-06-04T14:16:30;2.20;;;2.00;;
15192;SDS011;7697;51.630;7.484;2023-06-04T14:21:33;3.42;;;2.13;;
15192;SDS011;7697;51.630;7.484;2023-06-04T14:26:35;2.35;;;2.10;;
15192;SDS011;7697;51.630;7.484;2023-06-04T14:31:37;2.47;;;1.80;;
15192;SDS011;7697;51.630;7.484;2023-06-04T14:36:41;3.10;;;2.10;;
15192;SDS011;7697;51.630;7.484;2023-06-04T14:41:43;2.30;;;1.90;;
15192;SDS011;7697;51.630;7.484;2023-06-04T14:46:44;5.10;;;2.30;;
15192;SDS011;7697;51.630;7.484;2023-06-04T14:51:48;2.33;;;2.08;;
15192;SDS011;7697;51.630;7.484;2023-06-04T14:56:50;2.47;;;2.20;;
15192;SDS011;7697;51.630;7.484;2023-06-04T15:01:52;3.40;;;2.30;;
15192;SDS011;7697;51.630;7.484;2023-06-04T15:06:56;2.10;;;1.90;;
15192;SDS011;7697;51.630;7.484;2023-06-04T15:11:57;3.22;;;2.03;;
15192;SDS011;7697;51.630;7.484;2023-06-04T15:16:59;2.58;;;2.10;;
15192;SDS011;7697;51.630;7.484;2023-06-04T15:22:03;3.72;;;2.17;;
15192;SDS011;7697;51.630;7.484;2023-06-04T15:27:05;3.17;;;1.90;;
15192;SDS011;7697;51.630;7.484;2023-06-04T15:32:06;2.08;;;1.88;;
15192;SDS011;7697;51.630;7.484;2023-06-04T15:37:09;2.72;;;2.03;;
15192;SDS011;7697;51.630;7.484;2023-06-04T15:42:11;2.10;;;1.67;;
15192;SDS011;7697;51.630;7.484;2023-06-04T15:47:13;2.42;;;1.73;;
15192;SDS011;7697;51.630;7.484;2023-06-04T15:52:16;2.28;;;1.83;;
15192;SDS011;7697;51.630;7.484;2023-06-04T15:57:19;2.17;;;1.75;;
15192;SDS011;7697;51.630;7.484;2023-06-04T16:02:21;3.25;;;1.85;;
15192;SDS011;7697;51.630;7.484;2023-06-04T16:07:24;2.20;;;2.00;;
15192;SDS011;7697;51.630;7.484;2023-06-04T16:12:27;3.38;;;1.85;;
15192;SDS011;7697;51.630;7.484;2023-06-04T16:17:29;2.17;;;1.67;;
15192;SDS011;7697;51.630;7.484;2023-06-04T16:22:32;2.72;;;1.90;;
15192;SDS011;7697;51.630;7.484;2023-06-04T16:27:34;2.60;;;1.77;;
15192;SDS011;7697;51.630;7.484;2023-06-04T16:32:36;1.75;;;1.55;;
15192;SDS011;7697;51.630;7.484;2023-06-04T16:37:39;2.03;;;1.83;;
15192;SDS011;7697;51.630;7.484;2023-06-04T16:42:40;1.70;;;1.60;;
15192;SDS011;7697;51.630;7.484;2023-06-04T16:47:42;1.90;;;1.67;;
15192;SDS011;7697;51.630;7.484;2023-06-04T16:52:46;1.85;;;1.65;;
15192;SDS011;7697;51.630;7.484;2023-06-04T16:57:47;1.83;;;1.73;;
15192;SDS011;7697;51.630;7.484;2023-06-04T17:02:49;2.05;;;1.67;;
15192;SDS011;7697;51.630;7.484;2023-06-04T17:07:52;2.30;;;2.00;;
15192;SDS011;7697;51.630;7.484;2023-06-04T17:12:55;2.85;;;1.77;;
15192;SDS011;7697;51.630;7.484;2023-06-04T17:17:59;2.03;;;1.83;;
15192;SDS011;7697;51.630;7.484;2023-06-04T17:23:03;2.88;;;1.92;;
15192;SDS011;7697;51.630;7.484;2023-06-04T17:28:04;3.25;;;1.80;;
15192;SDS011;7697;51.630;7.484;2023-06-04T17:33:06;3.13;;;2.47;;
15192;SDS011;7697;51.630;7.484;2023-06-04T17:38:10;2.17;;;1.80;;
15192;SDS011;7697;51.630;7.484;2023-06-04T17:43:12;1.88;;;1.63;;
15192;SDS011;7697;51.630;7.484;2023-06-04T17:48:14;2.15;;;1.80;;
15192;SDS011;7697;51.630;7.484;2023-06-04T17:53:17;1.52;;;1.42;;
15192;SDS011;7697;51.630;7.484;2023-06-04T17:58:18;2.22;;;1.50;;
15192;SDS011;7697;51.630;7.484;2023-06-04T18:03:20;2.47;;;1.45;;
15192;SDS011;7697;51.630;7.484;2023-06-04T18:08:23;2.88;;;1.60;;
15192;SDS011;7697;51.630;7.484;2023-06-04T18:13:25;2.13;;;1.65;;
15192;SDS011;7697;51.630;7.484;2023-06-04T18:18:27;2.70;;;1.80;;
15192;SDS011;7697;51.630;7.484;2023-06-04T18:23:30;1.88;;;1.65;;
15192;SDS011;7697;51.630;7.484;2023-06-04T18:28:32;1.60;;;1.50;;
15192;SDS011;7697;51.630;7.484;2023-06-04T18:33:34;1.30;;;1.20;;
15192;SDS011;7697;51.630;7.484;2023-06-04T18:38:39;2.42;;;1.60;;
15192;SDS011;7697;51.630;7.484;2023-06-04T18:43:41;2.33;;;1.40;;
15192;SDS011;7697;51.630;7.484;2023-06-04T18:48:43;1.75;;;1.45;;
15192;SDS011;7697;51.630;7.484;2023-06-04T18:53:48;1.85;;;1.50;;
15192;SDS011;7697;51.630;7.484;2023-06-04T18:58:50;2.20;;;1.70;;
15192;SDS011;7697;51.630;7.484;2023-06-04T19:03:53;1.50;;;1.40;;
15192;SDS011;7697;51.630;7.484;2023-06-04T19:08:56;1.42;;;1.30;;
15192;SDS011;7697;51.630;7.484;2023-06-04T19:13:58;1.52;;;1.42;;
15192;SDS011;7697;51.630;7.484;2023-06-04T19:18:59;1.50;;;1.40;;
15192;SDS011;7697;51.630;7.484;2023-06-04T19:24:03;1.67;;;1.30;;
15192;SDS011;7697;51.630;7.484;2023-06-04T19:29:08;1.55;;;1.35;;
15192;SDS011;7697;51.630;7.484;2023-06-04T19:34:10;2.13;;;1.50;;
15192;SDS011;7697;51.630;7.484;2023-06-04T19:39:13;2.65;;;1.83;;
15192;SDS011;7697;51.630;7.484;2023-06-04T19:44:15;1.40;;;1.30;;
15192;SDS011;7697;51.630;7.484;2023-06-04T19:49:17;1.52;;;1.42;;
15192;SDS011;7697;51.630;7.484;2023-06-04T19:54:21;2.00;;;1.33;;
15192;SDS011;7697;51.630;7.484;2023-06-04T19:59:22;1.70;;;1.60;;
15192;SDS011;7697;51.630;7.484;2023-06-04T20:04:25;1.67;;;1.20;;
15192;SDS011;7697;51.630;7.484;2023-06-04T20:09:28;1.48;;;1.38;;
15192;SDS011;7697;51.630;7.484;2023-06-04T20:14:30;1.50;;;1.33;;
15192;SDS011;7697;51.630;7.484;2023-06-04T20:19:32;1.20;;;1.10;;
15192;SDS011;7697;51.630;7.484;2023-06-04T20:24:37;1.50;;;1.40;;
15192;SDS011;7697;51.630;7.484;2023-06-04T20:29:39;1.65;;;1.50;;
15192;SDS011;7697;51.630;7.484;2023-06-04T20:34:41;1.70;;;1.60;;
15192;SDS011;7697;51.630;7.484;2023-06-04T20:39:44;1.83;;;1.40;;
15192;SDS011;7697;51.630;7.484;2023-06-04T20:44:49;1.40;;;1.30;;
15192;SDS011;7697;51.630;7.484;2023-06-04T20:49:50;1.50;;;1.40;;
15192;SDS011;7697;51.630;7.484;2023-06-04T20:54:53;1.30;;;1.20;;
15192;SDS011;7697;51.630;7.484;2023-06-04T20:59:55;1.85;;;1.50;;
15192;SDS011;7697;51.630;7.484;2023-06-04T21:04:57;1.60;;;1.40;;
15192;SDS011;7697;51.630;7.484;2023-06-04T21:10:00;1.95;;;1.67;;
15192;SDS011;7697;51.630;7.484;2023-06-04T21:15:03;1.70;;;1.55;;
15192;SDS011;7697;51.630;7.484;2023-06-04T21:20:06;2.10;;;1.73;;
15192;SDS011;7697;51.630;7.484;2023-06-04T21:25:10;4.22;;;2.30;;
15192;SDS011;7697;51.630;7.484;2023-06-04T21:30:13;2.50;;;1.83;;
15192;SDS011;7697;51.630;7.484;2023-06-04T21:35:15;4.10;;;1.90;;
15192;SDS011;7697;51.630;7.484;2023-06-04T21:40:19;2.85;;;1.98;;
15192;SDS011;7697;51.630;7.484;2023-06-04T21:45:20;3.33;;;1.63;;
15192;SDS011;7697;51.630;7.484;2023-06-04T21:50:22;2.63;;;1.95;;
15192;SDS011;7697;51.630;7.484;2023-06-04T21:55:26;2.40;;;1.88;;
15192;SDS011;7697;51.630;7.484;2023-06-04T22:00:27;4.97;;;2.13;;
15192;SDS011;7697;51.630;7.484;2023-06-04T22:05:29;3.28;;;2.20;;
15192;SDS011;7697;51.630;7.484;2023-06-04T22:10:32;2.28;;;1.60;;
15192;SDS011;7697;51.630;7.484;2023-06-04T22:15:34;2.47;;;2.00;;
15192;SDS011;7697;51.630;7.484;2023-06-04T22:20:36;2.60;;;1.90;;
15192;SDS011;7697;51.630;7.484;2023-06-04T22:25:40;3.85;;;2.30;;
15192;SDS011;7697;51.630;7.484;2023-06-04T22:30:42;2.75;;;1.85;;
15192;SDS011;7697;51.630;7.484;2023-06-04T22:35:43;4.15;;;1.90;;
15192;SDS011;7697;51.630;7.484;2023-06-04T22:40:47;2.55;;;1.90;;
15192;SDS011;7697;51.630;7.484;2023-06-04T22:45:48;2.78;;;1.85;;
15192;SDS011;7697;51.630;7.484;2023-06-04T22:50:50;3.05;;;1.90;;
15192;SDS011;7697;51.630;7.484;2023-06-04T22:55:54;2.80;;;1.90;;
15192;SDS011;7697;51.630;7.484;2023-06-04T23:00:55;2.13;;;1.58;;
15192;SDS011;7697;51.630;7.484;2023-06-04T23:05:57;2.15;;;1.60;;
15192;SDS011;7697;51.630;7.484;2023-06-04T23:11:01;2.33;;;1.70;;
15192;SDS011;7697;51.630;7.484;2023-06-04T23:16:02;1.60;;;1.50;;
15192;SDS011;7697;51.630;7.484;2023-06-04T23:21:04;3.05;;;2.00;;
15192;SDS011;7697;51.630;7.484;2023-06-04T23:26:07;2.53;;;2.00;;
15192;SDS011;7697;51.630;7.484;2023-06-04T23:31:10;1.90;;;1.60;;
15192;SDS011;7697;51.630;7.484;2023-06-04T23:36:12;2.42;;;1.63;;
15192;SDS011;7697;51.630;7.484;2023-06-04T23:41:16;2.50;;;1.58;;
15192;SDS011;7697;51.630;7.484;2023-06-04T23:46:18;2.78;;;1.85;;
15192;SDS011;7697;51.630;7.484;2023-06-04T23:51:22;2.28;;;1.60;;
15192;SDS011;7697;51.630;7.484;2023-06-04T23:56:25;1.88;;;1.70;;
